createdAt,value
2019-02-16T00:00:46.363Z,41.25
2019-02-16T00:03:14.075Z,41.09
2019-02-16T00:05:41.842Z,41.51
2019-02-16T00:08:09.554Z,42.92
2019-02-16T00:10:37.276Z,42.17
2019-02-16T00:13:04.999Z,41.79
2019-02-16T00:15:32.782Z,41.81
2019-02-16T00:18:00.531Z,41.48
2019-02-16T00:20:28.294Z,41.58
2019-02-16T00:22:56.058Z,41.94
2019-02-16T00:25:23.839Z,41.94
2019-02-16T00:27:51.587Z,41.63
2019-02-16T00:30:19.326Z,41.32
2019-02-16T00:32:47.134Z,41.15
2019-02-16T00:35:14.857Z,41.82
2019-02-16T00:37:42.579Z,41.20
2019-02-16T00:40:16.914Z,41.53
2019-02-16T00:42:44.626Z,41.11
2019-02-16T00:45:12.367Z,41.39
2019-02-16T00:47:40.109Z,41.63
2019-02-16T00:50:07.914Z,41.50
2019-02-16T00:52:35.658Z,41.58
2019-02-16T00:55:03.366Z,41.18
2019-02-16T00:57:31.095Z,41.62
2019-02-16T00:59:58.854Z,41.37
2019-02-16T01:02:26.565Z,42.27
2019-02-16T01:04:54.339Z,41.37
2019-02-16T01:07:22.078Z,41.79
2019-02-16T01:09:49.786Z,42.07
2019-02-16T01:12:17.522Z,41.61
2019-02-16T01:14:45.263Z,41.64
2019-02-16T01:17:13.053Z,41.76
2019-02-16T01:20:00.243Z,41.20
2019-02-16T01:22:28.094Z,41.39
2019-02-16T01:24:55.811Z,41.34
2019-02-16T01:27:23.732Z,41.62
2019-02-16T01:29:52.182Z,41.38
2019-02-16T01:32:20.219Z,41.00
2019-02-16T01:34:48.135Z,41.85
2019-02-16T01:37:16.477Z,41.54
2019-02-16T01:39:44.396Z,41.40
2019-02-16T01:42:12.289Z,41.22
2019-02-16T01:44:40.635Z,41.32
2019-02-16T01:47:08.458Z,42.01
2019-02-16T01:49:36.380Z,41.43
2019-02-16T01:52:04.265Z,41.98
2019-02-16T01:54:32.251Z,41.51
2019-02-16T01:57:00.078Z,41.03
2019-02-16T01:59:27.901Z,41.06
2019-02-16T02:01:55.731Z,42.09
2019-02-16T02:04:23.565Z,41.62
2019-02-16T02:06:51.413Z,41.71
2019-02-16T02:09:19.265Z,41.72
2019-02-16T02:11:47.143Z,40.89
2019-02-16T02:14:15.043Z,40.86
2019-02-16T02:16:42.900Z,41.56
2019-02-16T02:19:10.742Z,41.59
2019-02-16T02:21:41.244Z,41.52
2019-02-16T02:24:08.148Z,41.35
2019-02-16T02:26:35.933Z,41.05
2019-02-16T02:29:03.793Z,41.29
2019-02-16T02:31:31.690Z,41.78
2019-02-16T02:33:59.588Z,41.18
2019-02-16T02:36:27.472Z,42.12
2019-02-16T02:38:55.479Z,41.27
2019-02-16T02:41:23.362Z,41.47
2019-02-16T02:43:51.292Z,41.61
2019-02-16T02:46:20.166Z,41.40
2019-02-16T02:48:48.037Z,41.23
2019-02-16T02:51:16.194Z,41.60
2019-02-16T02:53:44.090Z,41.66
2019-02-16T02:56:11.890Z,41.00
2019-02-16T02:58:39.800Z,41.11
2019-02-16T03:01:07.657Z,41.29
2019-02-16T03:03:35.686Z,40.79
2019-02-16T03:06:03.482Z,41.90
2019-02-16T03:08:31.264Z,41.32
2019-02-16T03:10:59.585Z,41.31
2019-02-16T03:13:27.779Z,41.22
2019-02-16T03:15:55.686Z,41.11
2019-02-16T03:18:23.544Z,41.41
2019-02-16T03:20:51.510Z,41.76
2019-02-16T03:23:20.970Z,42.12
2019-02-16T03:26:00.419Z,41.51
2019-02-16T03:28:36.088Z,41.74
2019-02-16T03:31:41.691Z,41.63
2019-02-16T03:34:12.496Z,43.49
2019-02-16T03:37:02.889Z,43.70
2019-02-16T03:39:36.155Z,42.27
2019-02-16T03:42:04.027Z,41.74
2019-02-16T03:44:31.831Z,41.94
2019-02-16T03:46:59.676Z,42.91
2019-02-16T03:49:27.656Z,41.60
2019-02-16T03:51:55.411Z,42.04
2019-02-16T03:54:23.233Z,42.19
2019-02-16T03:56:51.068Z,42.47
2019-02-16T03:59:19.042Z,41.97
2019-02-16T04:01:47.243Z,41.85
2019-02-16T04:04:15.132Z,42.35
2019-02-16T04:06:43.451Z,41.52
2019-02-16T04:09:11.393Z,41.46
2019-02-16T04:11:39.223Z,41.26
2019-02-16T04:14:07.096Z,41.73
2019-02-16T04:16:34.957Z,42.33
2019-02-16T04:19:02.843Z,41.76
2019-02-16T04:21:30.763Z,42.22
2019-02-16T04:23:58.776Z,41.29
2019-02-16T04:26:26.734Z,42.19
2019-02-16T04:28:54.657Z,41.34
2019-02-16T04:31:22.515Z,41.83
2019-02-16T04:33:50.368Z,41.70
2019-02-16T04:36:18.243Z,41.82
2019-02-16T04:38:46.342Z,41.50
2019-02-16T04:41:14.173Z,41.64
2019-02-16T04:43:42.015Z,41.57
2019-02-16T04:46:10.016Z,41.81
2019-02-16T04:48:37.940Z,41.36
2019-02-16T04:51:05.834Z,41.77
2019-02-16T04:53:33.788Z,41.96
2019-02-16T04:56:01.849Z,41.87
2019-02-16T04:58:29.650Z,42.24
2019-02-16T05:00:57.444Z,42.07
2019-02-16T05:03:25.371Z,41.95
2019-02-16T05:05:53.253Z,41.93
2019-02-16T05:08:21.042Z,41.70
2019-02-16T05:10:49.027Z,40.89
2019-02-16T05:13:16.984Z,41.43
2019-02-16T05:15:44.849Z,41.92
2019-02-16T05:18:12.696Z,41.62
2019-02-16T05:20:40.601Z,42.07
2019-02-16T05:23:08.504Z,41.55
2019-02-16T05:25:36.283Z,41.83
2019-02-16T05:28:04.156Z,41.60
2019-02-16T05:30:32.032Z,41.90
2019-02-16T05:33:00.035Z,42.94
2019-02-16T05:35:28.329Z,42.52
2019-02-16T05:37:56.124Z,42.70
2019-02-16T05:40:24.186Z,41.67
2019-02-16T05:42:52.259Z,42.40
2019-02-16T05:45:20.160Z,42.14
2019-02-16T05:47:48.099Z,42.52
2019-02-16T05:50:15.973Z,42.00
2019-02-16T05:52:43.761Z,42.11
2019-02-16T05:55:11.643Z,43.44
2019-02-16T05:57:39.598Z,42.58
2019-02-16T06:00:08.405Z,42.77
2019-02-16T06:02:36.300Z,42.26
2019-02-16T06:05:04.409Z,42.28
2019-02-16T06:07:32.208Z,44.11
2019-02-16T06:10:00.315Z,42.71
2019-02-16T06:12:28.154Z,42.92
2019-02-16T06:14:56.009Z,42.08
2019-02-16T06:17:23.855Z,42.86
2019-02-16T06:19:52.049Z,43.73
2019-02-16T06:22:19.935Z,43.55
2019-02-16T06:24:47.733Z,42.70
2019-02-16T06:27:15.600Z,42.45
2019-02-16T06:29:43.454Z,42.61
2019-02-16T06:32:11.269Z,42.86
2019-02-16T06:34:39.169Z,43.02
2019-02-16T06:37:21.194Z,42.42
2019-02-16T06:39:50.222Z,42.61
2019-02-16T06:42:18.268Z,42.99
2019-02-16T06:44:46.263Z,42.46
2019-02-16T06:47:14.033Z,42.24
2019-02-16T06:50:18.220Z,42.05
2019-02-16T06:52:46.021Z,41.77
2019-02-16T06:58:29.131Z,42.43
2019-02-16T07:04:55.080Z,42.41
2019-02-16T07:07:22.982Z,43.17
2019-02-16T07:09:50.893Z,43.46
2019-02-16T07:12:19.003Z,43.20
2019-02-16T07:15:25.810Z,43.65
2019-02-16T07:18:12.692Z,43.80
2019-02-16T07:20:40.738Z,43.81
2019-02-16T07:23:08.538Z,44.75
2019-02-16T07:25:36.651Z,45.32
2019-02-16T07:28:24.358Z,44.50
2019-02-16T07:31:02.900Z,44.66
2019-02-16T07:33:30.811Z,46.53
2019-02-16T07:35:58.960Z,47.45
2019-02-16T07:38:26.940Z,45.42
2019-02-16T07:40:54.838Z,44.14
2019-02-16T07:43:54.024Z,43.96
2019-02-16T07:46:39.587Z,43.02
2019-02-16T07:49:32.935Z,45.00
2019-02-16T07:52:22.589Z,43.34
2019-02-16T07:55:16.957Z,43.72
2019-02-16T07:57:56.097Z,46.72
2019-02-16T08:00:44.520Z,43.82
2019-02-16T08:03:16.638Z,44.57
2019-02-16T08:06:05.357Z,46.90
2019-02-16T08:09:05.269Z,47.34
2019-02-16T08:11:42.665Z,43.06
2019-02-16T08:14:24.046Z,44.89
2019-02-16T08:16:57.920Z,43.96
2019-02-16T08:19:52.944Z,45.31
2019-02-16T08:22:27.574Z,43.97
2019-02-16T08:25:13.270Z,41.81
2019-02-16T08:27:59.107Z,43.87
2019-02-16T08:30:45.994Z,42.54
2019-02-16T08:33:32.860Z,43.03
2019-02-16T08:36:26.258Z,42.73
2019-02-16T08:39:13.241Z,42.80
2019-02-16T08:41:55.335Z,43.48
2019-02-16T08:44:40.900Z,42.84
2019-02-16T08:47:26.624Z,43.33
2019-02-16T08:50:09.788Z,42.72
2019-02-16T08:53:02.461Z,41.44
2019-02-16T08:55:52.329Z,41.84
2019-02-16T08:58:36.566Z,42.04
2019-02-16T09:01:29.692Z,42.51
2019-02-16T09:04:16.574Z,41.71
2019-02-16T09:07:10.912Z,41.53
2019-02-16T09:09:57.819Z,41.96
2019-02-16T09:12:32.097Z,41.58
2019-02-16T09:15:17.580Z,42.00
2019-02-16T09:17:57.332Z,41.71
2019-02-16T09:20:44.011Z,42.29
2019-02-16T09:23:25.349Z,43.14
2019-02-16T09:26:21.653Z,42.32
2019-02-16T09:28:56.396Z,44.41
2019-02-16T09:31:49.157Z,42.72
2019-02-16T09:34:23.440Z,42.58
2019-02-16T09:37:25.916Z,43.23
2019-02-16T09:40:06.352Z,44.70
2019-02-16T09:42:43.547Z,43.05
2019-02-16T09:45:33.448Z,43.05
2019-02-16T09:48:28.168Z,43.73
2019-02-16T09:51:19.905Z,43.24
2019-02-16T09:54:08.443Z,43.06
2019-02-16T10:00:00.191Z,45.79
2019-02-16T10:02:44.058Z,43.09
2019-02-16T10:05:29.478Z,43.80
2019-02-16T10:08:22.259Z,45.46
2019-02-16T10:11:11.834Z,43.91
2019-02-16T10:13:59.949Z,43.70
2019-02-16T10:16:49.089Z,43.41
2019-02-16T10:19:25.077Z,44.09
2019-02-16T10:22:15.051Z,43.89
2019-02-16T10:25:11.539Z,43.87
2019-02-16T10:27:58.528Z,43.87
2019-02-16T10:30:52.918Z,43.88
2019-02-16T10:33:38.689Z,43.93
2019-02-16T10:36:34.646Z,43.96
2019-02-16T10:39:21.536Z,43.95
2019-02-16T10:42:14.668Z,44.01
2019-02-16T10:44:56.888Z,44.03
2019-02-16T10:47:49.745Z,43.72
2019-02-16T10:50:28.241Z,43.78
2019-02-16T10:53:14.205Z,44.05
2019-02-16T10:56:07.076Z,43.89
2019-02-16T10:58:51.189Z,43.90
2019-02-16T11:01:38.114Z,44.46
2019-02-16T11:04:37.629Z,43.84
2019-02-16T11:07:12.684Z,43.92
2019-02-16T11:10:01.822Z,44.13
2019-02-16T11:12:48.723Z,43.97
2019-02-16T11:15:41.616Z,43.92
2019-02-16T11:18:27.406Z,43.88
2019-02-16T11:21:10.044Z,43.94
2019-02-16T11:24:14.780Z,43.95
2019-02-16T11:27:01.544Z,44.19
2019-02-16T11:30:03.808Z,44.38
2019-02-16T11:32:49.260Z,44.49
2019-02-16T11:35:40.329Z,44.07
2019-02-16T11:38:25.824Z,43.94
2019-02-16T11:41:31.275Z,44.03
2019-02-16T11:44:10.850Z,44.13
2019-02-16T11:46:51.696Z,46.81
2019-02-16T11:49:28.920Z,45.04
2019-02-16T11:52:14.793Z,46.57
2019-02-16T11:54:55.771Z,44.34
2019-02-16T11:57:48.571Z,44.72
2019-02-16T12:00:50.823Z,44.76
2019-02-16T12:03:27.639Z,44.18
2019-02-16T12:06:13.294Z,45.29
2019-02-16T12:09:16.455Z,44.06
2019-02-16T12:11:54.308Z,44.22
2019-02-16T12:14:40.070Z,44.42
2019-02-16T12:17:24.977Z,44.11
2019-02-16T12:20:01.337Z,44.05
2019-02-16T12:22:50.320Z,43.95
2019-02-16T12:25:24.331Z,44.32
2019-02-16T12:28:23.399Z,43.84
2019-02-16T12:31:02.922Z,43.93
2019-02-16T12:34:05.194Z,43.83
2019-02-16T12:36:51.993Z,44.40
2019-02-16T12:39:28.106Z,43.79
2019-02-16T12:42:13.799Z,43.88
2019-02-16T12:45:08.687Z,44.31
2019-02-16T12:47:46.148Z,43.94
2019-02-16T12:50:39.027Z,43.71
2019-02-16T12:53:35.139Z,43.60
2019-02-16T12:56:11.776Z,43.52
2019-02-16T12:58:47.768Z,43.57
2019-02-16T13:01:33.248Z,43.56
2019-02-16T13:04:20.147Z,43.48
2019-02-16T13:06:55.692Z,43.55
2019-02-16T13:09:30.231Z,43.58
2019-02-16T13:12:18.688Z,43.53
2019-02-16T13:14:57.977Z,43.28
2019-02-16T13:17:45.484Z,43.40
2019-02-16T13:20:41.560Z,43.74
2019-02-16T13:23:28.604Z,43.49
2019-02-16T13:26:14.354Z,43.30
2019-02-16T13:29:01.793Z,43.35
2019-02-16T13:31:39.152Z,43.30
2019-02-16T13:34:17.240Z,42.94
2019-02-16T13:36:54.643Z,42.78
2019-02-16T13:39:37.204Z,42.80
2019-02-16T13:42:16.175Z,42.78
2019-02-16T13:45:00.730Z,42.80
2019-02-16T13:47:32.927Z,42.78
2019-02-16T13:50:31.979Z,42.91
2019-02-16T13:53:05.624Z,42.46
2019-02-16T13:55:59.773Z,42.26
2019-02-16T13:58:58.638Z,42.11
2019-02-16T14:01:46.874Z,42.19
2019-02-16T14:04:34.324Z,42.25
2019-02-16T14:07:14.098Z,42.15
2019-02-16T14:09:49.978Z,42.13
2019-02-16T14:12:28.164Z,42.07
2019-02-16T14:15:16.042Z,42.22
2019-02-16T14:17:48.247Z,42.01
2019-02-16T14:20:16.232Z,42.02
2019-02-16T14:22:47.592Z,42.10
2019-02-16T14:25:26.000Z,42.28
2019-02-16T14:27:53.904Z,41.92
2019-02-16T14:30:21.690Z,41.93
2019-02-16T14:32:49.464Z,42.27
2019-02-16T14:35:17.228Z,41.79
2019-02-16T14:37:49.760Z,41.92
2019-02-16T14:40:17.518Z,42.35
2019-02-16T14:42:45.399Z,41.94
2019-02-16T14:45:14.183Z,41.82
2019-02-16T14:47:42.576Z,41.70
2019-02-16T14:50:23.151Z,41.83
2019-02-16T14:53:03.012Z,41.88
2019-02-16T14:55:31.043Z,41.62
2019-02-16T14:57:59.259Z,41.96
2019-02-16T15:00:27.257Z,41.78
2019-02-16T15:02:55.288Z,41.72
2019-02-16T15:05:23.175Z,41.53
2019-02-16T15:07:51.317Z,41.76
2019-02-16T15:10:19.384Z,41.58
2019-02-16T15:12:47.133Z,41.85
2019-02-16T15:15:15.107Z,41.61
2019-02-16T15:17:50.257Z,41.57
2019-02-16T15:20:18.052Z,41.81
2019-02-16T15:22:45.848Z,41.56
2019-02-16T15:25:13.651Z,41.80
2019-02-16T15:27:41.480Z,41.50
2019-02-16T15:30:14.503Z,41.52
2019-02-16T15:32:42.719Z,40.92
2019-02-16T15:35:10.733Z,41.45
2019-02-16T15:37:39.277Z,41.41
2019-02-16T15:40:07.441Z,41.05
2019-02-16T15:42:35.394Z,41.31
2019-02-16T15:45:05.671Z,41.30
2019-02-16T15:47:33.515Z,41.35
2019-02-16T15:50:05.094Z,41.46
2019-02-16T15:52:32.818Z,41.63
2019-02-16T15:55:00.597Z,41.11
2019-02-16T15:57:28.584Z,40.93
2019-02-16T15:59:56.456Z,40.66
2019-02-16T16:02:24.248Z,40.76
2019-02-16T16:04:52.099Z,40.31
2019-02-16T16:07:19.919Z,40.51
2019-02-16T16:09:58.126Z,40.66
2019-02-16T16:12:43.217Z,40.76
2019-02-16T16:15:23.860Z,40.56
2019-02-16T16:18:03.040Z,41.08
2019-02-16T16:20:49.562Z,41.17
2019-02-16T16:23:33.267Z,41.02
2019-02-16T16:26:26.656Z,41.10
2019-02-16T16:29:13.558Z,40.76
2019-02-16T16:31:49.830Z,40.25
2019-02-16T16:34:36.579Z,40.27
2019-02-16T16:37:23.712Z,40.70
2019-02-16T16:39:59.023Z,40.41
2019-02-16T16:42:44.764Z,40.42
2019-02-16T16:45:31.700Z,40.16
2019-02-16T16:48:12.476Z,40.72
2019-02-16T16:51:17.713Z,40.47
2019-02-16T16:54:03.807Z,40.32
2019-02-16T16:56:42.405Z,40.85
2019-02-16T16:59:21.149Z,41.21
2019-02-16T17:02:34.875Z,41.24
2019-02-16T17:05:19.856Z,41.34
2019-02-16T17:08:37.326Z,40.80
2019-02-16T17:11:36.721Z,40.88
2019-02-16T17:14:40.528Z,40.89
2019-02-16T17:17:30.792Z,41.01
2019-02-16T17:20:54.359Z,40.80
2019-02-16T17:23:50.015Z,40.73
2019-02-16T17:27:10.063Z,40.34
2019-02-16T17:30:06.148Z,40.61
2019-02-16T17:33:03.311Z,40.16
2019-02-16T17:36:01.366Z,40.34
2019-02-16T17:38:59.313Z,40.68
2019-02-16T17:42:00.928Z,40.14
2019-02-16T17:44:42.251Z,39.63
2019-02-16T17:47:22.114Z,40.02
2019-02-16T17:50:58.531Z,40.27
2019-02-16T17:53:50.961Z,40.41
2019-02-16T17:56:24.166Z,40.02
2019-02-16T17:59:17.000Z,40.33
2019-02-16T18:05:28.208Z,39.84
2019-02-16T18:08:20.953Z,39.98
2019-02-16T18:11:16.631Z,40.23
2019-02-16T18:17:17.289Z,40.12
2019-02-16T18:20:41.184Z,40.02
2019-02-16T18:23:13.686Z,39.96
2019-02-16T18:26:18.858Z,39.67
2019-02-16T18:29:03.405Z,39.98
2019-02-16T18:35:23.933Z,39.94
2019-02-16T18:38:34.175Z,40.06
2019-02-16T18:41:26.997Z,39.80
2019-02-16T18:44:15.213Z,39.96
2019-02-16T18:47:20.746Z,40.22
2019-02-16T18:50:42.769Z,39.78
2019-02-16T18:56:54.580Z,39.44
2019-02-16T18:59:46.323Z,39.51
2019-02-16T19:02:39.357Z,39.66
2019-02-16T19:05:33.295Z,39.40
2019-02-16T19:08:17.537Z,39.72
2019-02-16T19:11:00.198Z,39.48
2019-02-16T19:16:45.352Z,39.93
2019-02-16T19:22:32.391Z,39.49
2019-02-16T19:29:06.413Z,39.67
2019-02-16T19:32:02.348Z,39.77
2019-02-16T19:34:57.542Z,39.72
2019-02-16T19:37:43.034Z,39.69
2019-02-16T19:40:29.885Z,39.44
2019-02-16T19:46:37.831Z,39.05
2019-02-16T19:52:55.286Z,39.50
2019-02-16T19:56:23.241Z,39.45
2019-02-16T19:59:03.325Z,39.25
2019-02-16T20:01:53.264Z,39.25
2019-02-16T20:04:41.120Z,39.11
2019-02-16T20:07:40.016Z,39.28
2019-02-16T20:10:24.079Z,39.17
2019-02-16T20:16:44.539Z,39.45
2019-02-16T20:22:41.211Z,39.43
2019-02-16T20:25:31.313Z,39.35
2019-02-16T20:28:16.992Z,39.28
2019-02-16T20:31:06.648Z,39.45
2019-02-16T20:33:52.488Z,39.31
2019-02-16T20:36:48.572Z,39.41
2019-02-16T20:39:37.988Z,39.17
2019-02-16T20:42:31.175Z,39.81
2019-02-16T20:45:17.068Z,39.38
2019-02-16T20:47:55.892Z,39.38
2019-02-16T20:50:48.543Z,39.47
2019-02-16T20:53:41.300Z,38.80
2019-02-16T20:56:31.128Z,39.32
2019-02-16T20:59:12.772Z,39.25
2019-02-16T21:01:50.662Z,39.47
2019-02-16T21:04:46.177Z,39.46
2019-02-16T21:07:31.957Z,39.32
2019-02-16T21:10:18.878Z,39.21
2019-02-16T21:12:54.942Z,38.95
2019-02-16T21:15:28.724Z,39.40
2019-02-16T21:18:05.013Z,39.15
2019-02-16T21:20:51.909Z,39.33
2019-02-16T21:23:50.412Z,39.55
2019-02-16T21:26:36.595Z,39.35
2019-02-16T21:29:17.391Z,39.28
2019-02-16T21:32:21.653Z,39.34
2019-02-16T21:34:57.607Z,39.53
2019-02-16T21:40:51.160Z,39.49
2019-02-16T21:43:41.342Z,39.76
2019-02-16T21:46:30.233Z,39.70
2019-02-16T21:49:24.850Z,39.96
2019-02-16T21:52:19.382Z,39.84
2019-02-16T21:55:02.748Z,39.67
2019-02-16T21:57:41.436Z,39.86
2019-02-16T22:00:26.860Z,39.62
2019-02-16T22:03:01.546Z,40.03
2019-02-16T22:05:51.524Z,40.38
2019-02-16T22:08:38.461Z,40.39
2019-02-16T22:11:15.753Z,39.98
2019-02-16T22:13:45.798Z,40.38
2019-02-16T22:16:20.569Z,40.43
2019-02-16T22:18:52.702Z,41.40
2019-02-16T22:21:20.725Z,40.82
2019-02-16T22:23:48.497Z,41.29
2019-02-16T22:26:16.328Z,40.65
2019-02-16T22:28:44.240Z,40.91
2019-02-16T22:31:12.232Z,41.14
2019-02-16T22:33:40.168Z,40.68
2019-02-16T22:36:07.912Z,41.05
2019-02-16T22:38:35.809Z,41.74
2019-02-16T22:41:03.801Z,42.13
2019-02-16T22:43:31.654Z,42.24
2019-02-16T22:45:59.640Z,40.87
2019-02-16T22:48:27.457Z,40.27
2019-02-16T22:50:55.206Z,41.73
2019-02-16T22:53:30.373Z,41.28
2019-02-16T22:55:58.667Z,41.35
2019-02-16T22:58:29.311Z,42.44
2019-02-16T23:00:57.503Z,41.35
2019-02-16T23:03:25.364Z,41.70
2019-02-16T23:05:58.080Z,41.07
2019-02-16T23:08:25.921Z,41.55
2019-02-16T23:10:53.749Z,41.75
2019-02-16T23:14:26.926Z,40.71
2019-02-16T23:15:53.839Z,41.98
2019-02-16T23:18:21.633Z,41.81
2019-02-16T23:20:49.407Z,41.87
2019-02-16T23:23:17.191Z,41.82
2019-02-16T23:26:23.286Z,41.60
2019-02-16T23:28:51.044Z,42.21
2019-02-16T23:34:30.748Z,41.92
2019-02-16T23:37:25.215Z,42.95
2019-02-16T23:39:52.960Z,41.61
2019-02-16T23:42:20.742Z,41.77
2019-02-16T23:44:48.531Z,43.27
2019-02-16T23:47:16.393Z,40.82
2019-02-16T23:50:26.222Z,43.41
2019-02-16T23:52:54.048Z,42.37
2019-02-16T23:56:23.062Z,43.10
2019-02-16T23:58:51.089Z,43.39
